sensor_id;sensor_type;location;lat;lon;timestamp;P1;durP1;ratioP1;P2;durP2;ratioP2
1721;SDS011;858;53.190;8.596;2023-06-26T00:00:50;13.47;;;11.47;;
1721;SDS011;858;53.190;8.596;2023-06-26T00:03:16;12.03;;;10.83;;
1721;SDS011;858;53.190;8.596;2023-06-26T00:05:42;12.50;;;11.30;;
1721;SDS011;858;53.190;8.596;2023-06-26T00:08:09;11.80;;;10.40;;
1721;SDS011;858;53.190;8.596;2023-06-26T00:10:35;11.93;;;10.87;;
1721;SDS011;858;53.190;8.596;2023-06-26T00:13:03;13.53;;;12.13;;
1721;SDS011;858;53.190;8.596;2023-06-26T00:15:29;13.00;;;11.70;;
1721;SDS011;858;53.190;8.596;2023-06-26T00:17:56;13.60;;;12.40;;
1721;SDS011;858;53.190;8.596;2023-06-26T00:20:23;11.90;;;10.70;;
1721;SDS011;858;53.190;8.596;2023-06-26T00:22:50;14.03;;;12.67;;
1721;SDS011;858;53.190;8.596;2023-06-26T00:25:16;15.93;;;13.00;;
1721;SDS011;858;53.190;8.596;2023-06-26T00:27:42;13.30;;;11.90;;
1721;SDS011;858;53.190;8.596;2023-06-26T00:30:12;13.47;;;12.17;;
1721;SDS011;858;53.190;8.596;2023-06-26T00:32:39;15.03;;;12.30;;
1721;SDS011;858;53.190;8.596;2023-06-26T00:35:05;14.67;;;11.60;;
1721;SDS011;858;53.190;8.596;2023-06-26T00:37:32;14.23;;;12.90;;
1721;SDS011;858;53.190;8.596;2023-06-26T00:39:58;13.23;;;11.90;;
1721;SDS011;858;53.190;8.596;2023-06-26T00:42:24;12.50;;;11.20;;
1721;SDS011;858;53.190;8.596;2023-06-26T00:44:51;11.77;;;10.73;;
1721;SDS011;858;53.190;8.596;2023-06-26T00:47:19;12.70;;;11.60;;
1721;SDS011;858;53.190;8.596;2023-06-26T00:49:45;14.20;;;12.10;;
1721;SDS011;858;53.190;8.596;2023-06-26T00:52:12;13.90;;;12.53;;
1721;SDS011;858;53.190;8.596;2023-06-26T00:54:38;13.30;;;11.57;;
1721;SDS011;858;53.190;8.596;2023-06-26T00:57:06;13.57;;;12.27;;
1721;SDS011;858;53.190;8.596;2023-06-26T00:59:33;13.67;;;12.27;;
1721;SDS011;858;53.190;8.596;2023-06-26T01:02:00;12.80;;;11.60;;
1721;SDS011;858;53.190;8.596;2023-06-26T01:04:28;13.40;;;12.07;;
1721;SDS011;858;53.190;8.596;2023-06-26T01:06:57;13.07;;;11.97;;
1721;SDS011;858;53.190;8.596;2023-06-26T01:09:24;14.47;;;12.97;;
1721;SDS011;858;53.190;8.596;2023-06-26T01:11:51;13.17;;;11.90;;
1721;SDS011;858;53.190;8.596;2023-06-26T01:14:18;13.80;;;12.40;;
1721;SDS011;858;53.190;8.596;2023-06-26T01:16:44;12.60;;;11.50;;
1721;SDS011;858;53.190;8.596;2023-06-26T01:19:13;15.37;;;12.00;;
1721;SDS011;858;53.190;8.596;2023-06-26T01:21:46;13.23;;;11.93;;
1721;SDS011;858;53.190;8.596;2023-06-26T01:24:15;14.40;;;12.90;;
1721;SDS011;858;53.190;8.596;2023-06-26T01:26:47;12.93;;;11.77;;
1721;SDS011;858;53.190;8.596;2023-06-26T01:29:14;12.70;;;11.50;;
1721;SDS011;858;53.190;8.596;2023-06-26T01:31:41;14.97;;;13.57;;
1721;SDS011;858;53.190;8.596;2023-06-26T01:34:08;14.37;;;12.93;;
1721;SDS011;858;53.190;8.596;2023-06-26T01:36:34;12.33;;;11.23;;
1721;SDS011;858;53.190;8.596;2023-06-26T01:39:02;13.87;;;12.67;;
1721;SDS011;858;53.190;8.596;2023-06-26T01:41:28;14.13;;;12.60;;
1721;SDS011;858;53.190;8.596;2023-06-26T01:44:01;15.83;;;12.70;;
1721;SDS011;858;53.190;8.596;2023-06-26T01:46:30;15.50;;;13.73;;
1721;SDS011;858;53.190;8.596;2023-06-26T01:48:59;14.07;;;12.80;;
1721;SDS011;858;53.190;8.596;2023-06-26T01:51:27;15.70;;;13.50;;
1721;SDS011;858;53.190;8.596;2023-06-26T01:53:56;14.13;;;12.73;;
1721;SDS011;858;53.190;8.596;2023-06-26T01:56:23;14.60;;;13.20;;
1721;SDS011;858;53.190;8.596;2023-06-26T01:58:50;13.47;;;12.17;;
1721;SDS011;858;53.190;8.596;2023-06-26T02:01:21;15.13;;;13.50;;
1721;SDS011;858;53.190;8.596;2023-06-26T02:03:47;18.03;;;14.97;;
1721;SDS011;858;53.190;8.596;2023-06-26T02:06:14;14.80;;;13.30;;
1721;SDS011;858;53.190;8.596;2023-06-26T02:08:41;14.40;;;13.03;;
1721;SDS011;858;53.190;8.596;2023-06-26T02:11:08;16.33;;;14.73;;
1721;SDS011;858;53.190;8.596;2023-06-26T02:13:34;15.90;;;14.23;;
1721;SDS011;858;53.190;8.596;2023-06-26T02:16:00;15.57;;;13.97;;
1721;SDS011;858;53.190;8.596;2023-06-26T02:18:28;16.73;;;15.10;;
1721;SDS011;858;53.190;8.596;2023-06-26T02:20:54;14.90;;;13.40;;
1721;SDS011;858;53.190;8.596;2023-06-26T02:23:21;15.70;;;14.10;;
1721;SDS011;858;53.190;8.596;2023-06-26T02:25:47;14.67;;;13.20;;
1721;SDS011;858;53.190;8.596;2023-06-26T02:28:15;15.27;;;13.87;;
1721;SDS011;858;53.190;8.596;2023-06-26T02:30:41;16.07;;;14.47;;
1721;SDS011;858;53.190;8.596;2023-06-26T02:33:08;17.33;;;15.40;;
1721;SDS011;858;53.190;8.596;2023-06-26T02:35:35;15.70;;;14.10;;
1721;SDS011;858;53.190;8.596;2023-06-26T02:38:03;16.33;;;14.83;;
1721;SDS011;858;53.190;8.596;2023-06-26T02:40:29;16.23;;;14.63;;
1721;SDS011;858;53.190;8.596;2023-06-26T02:42:56;15.43;;;14.00;;
1721;SDS011;858;53.190;8.596;2023-06-26T02:45:22;15.40;;;13.70;;
1721;SDS011;858;53.190;8.596;2023-06-26T02:47:49;14.57;;;13.10;;
1721;SDS011;858;53.190;8.596;2023-06-26T02:50:16;16.43;;;14.73;;
1721;SDS011;858;53.190;8.596;2023-06-26T02:52:44;17.27;;;15.40;;
1721;SDS011;858;53.190;8.596;2023-06-26T02:55:13;15.50;;;14.00;;
1721;SDS011;858;53.190;8.596;2023-06-26T02:57:39;17.10;;;15.27;;
1721;SDS011;858;53.190;8.596;2023-06-26T03:00:06;15.90;;;14.37;;
1721;SDS011;858;53.190;8.596;2023-06-26T03:02:34;14.53;;;13.13;;
1721;SDS011;858;53.190;8.596;2023-06-26T03:05:02;14.80;;;13.33;;
1721;SDS011;858;53.190;8.596;2023-06-26T03:07:29;15.67;;;14.07;;
1721;SDS011;858;53.190;8.596;2023-06-26T03:09:56;14.93;;;13.37;;
1721;SDS011;858;53.190;8.596;2023-06-26T03:12:24;19.93;;;15.77;;
1721;SDS011;858;53.190;8.596;2023-06-26T03:14:52;15.83;;;13.80;;
1721;SDS011;858;53.190;8.596;2023-06-26T03:17:19;15.33;;;13.87;;
1721;SDS011;858;53.190;8.596;2023-06-26T03:19:45;15.50;;;14.00;;
1721;SDS011;858;53.190;8.596;2023-06-26T03:22:11;14.07;;;12.77;;
1721;SDS011;858;53.190;8.596;2023-06-26T03:24:38;15.43;;;13.90;;
1721;SDS011;858;53.190;8.596;2023-06-26T03:27:06;16.60;;;13.70;;
1721;SDS011;858;53.190;8.596;2023-06-26T03:29:34;14.23;;;12.93;;
1721;SDS011;858;53.190;8.596;2023-06-26T03:32:01;14.33;;;12.93;;
1721;SDS011;858;53.190;8.596;2023-06-26T03:34:28;16.13;;;14.50;;
1721;SDS011;858;53.190;8.596;2023-06-26T03:36:54;15.67;;;14.07;;
1721;SDS011;858;53.190;8.596;2023-06-26T03:39:20;14.77;;;13.27;;
1721;SDS011;858;53.190;8.596;2023-06-26T03:41:47;19.00;;;13.37;;
1721;SDS011;858;53.190;8.596;2023-06-26T03:44:14;16.80;;;14.83;;
1721;SDS011;858;53.190;8.596;2023-06-26T03:46:41;18.27;;;13.77;;
1721;SDS011;858;53.190;8.596;2023-06-26T03:49:08;14.77;;;13.27;;
1721;SDS011;858;53.190;8.596;2023-06-26T03:51:35;16.33;;;13.70;;
1721;SDS011;858;53.190;8.596;2023-06-26T03:54:02;14.13;;;12.83;;
1721;SDS011;858;53.190;8.596;2023-06-26T03:56:28;13.33;;;12.13;;
1721;SDS011;858;53.190;8.596;2023-06-26T03:58:55;14.90;;;12.90;;
1721;SDS011;858;53.190;8.596;2023-06-26T04:01:23;16.00;;;13.87;;
1721;SDS011;858;53.190;8.596;2023-06-26T04:03:50;15.87;;;13.80;;
1721;SDS011;858;53.190;8.596;2023-06-26T04:06:17;13.97;;;11.70;;
1721;SDS011;858;53.190;8.596;2023-06-26T04:08:44;14.00;;;12.60;;
1721;SDS011;858;53.190;8.596;2023-06-26T04:11:11;14.70;;;13.20;;
1721;SDS011;858;53.190;8.596;2023-06-26T04:13:37;19.10;;;13.10;;
1721;SDS011;858;53.190;8.596;2023-06-26T04:16:04;15.20;;;13.70;;
1721;SDS011;858;53.190;8.596;2023-06-26T04:18:32;20.70;;;15.53;;
1721;SDS011;858;53.190;8.596;2023-06-26T04:21:05;14.07;;;12.77;;
1721;SDS011;858;53.190;8.596;2023-06-26T04:23:33;15.27;;;12.37;;
1721;SDS011;858;53.190;8.596;2023-06-26T04:26:00;14.40;;;13.00;;
1721;SDS011;858;53.190;8.596;2023-06-26T04:28:27;15.37;;;12.83;;
1721;SDS011;858;53.190;8.596;2023-06-26T04:30:54;13.33;;;12.17;;
1721;SDS011;858;53.190;8.596;2023-06-26T04:33:20;18.13;;;14.30;;
1721;SDS011;858;53.190;8.596;2023-06-26T04:35:49;14.90;;;13.50;;
1721;SDS011;858;53.190;8.596;2023-06-26T04:38:16;14.90;;;13.60;;
1721;SDS011;858;53.190;8.596;2023-06-26T04:40:42;13.53;;;12.07;;
1721;SDS011;858;53.190;8.596;2023-06-26T04:43:09;14.30;;;12.33;;
1721;SDS011;858;53.190;8.596;2023-06-26T04:45:35;14.43;;;12.93;;
1721;SDS011;858;53.190;8.596;2023-06-26T04:48:01;13.93;;;12.63;;
1721;SDS011;858;53.190;8.596;2023-06-26T04:50:28;13.60;;;12.30;;
1721;SDS011;858;53.190;8.596;2023-06-26T04:52:56;17.30;;;13.17;;
1721;SDS011;858;53.190;8.596;2023-06-26T04:55:23;13.53;;;11.63;;
1721;SDS011;858;53.190;8.596;2023-06-26T04:57:50;14.57;;;13.27;;
1721;SDS011;858;53.190;8.596;2023-06-26T05:00:16;15.97;;;14.33;;
1721;SDS011;858;53.190;8.596;2023-06-26T05:02:43;17.10;;;12.67;;
1721;SDS011;858;53.190;8.596;2023-06-26T05:05:10;13.87;;;12.50;;
1721;SDS011;858;53.190;8.596;2023-06-26T05:07:38;17.80;;;13.63;;
1721;SDS011;858;53.190;8.596;2023-06-26T05:10:06;14.30;;;12.90;;
1721;SDS011;858;53.190;8.596;2023-06-26T05:12:33;13.70;;;12.37;;
1721;SDS011;858;53.190;8.596;2023-06-26T05:14:59;14.60;;;13.10;;
1721;SDS011;858;53.190;8.596;2023-06-26T05:17:25;16.53;;;11.37;;
1721;SDS011;858;53.190;8.596;2023-06-26T05:19:53;15.70;;;12.60;;
1721;SDS011;858;53.190;8.596;2023-06-26T05:22:19;14.60;;;13.20;;
1721;SDS011;858;53.190;8.596;2023-06-26T05:24:46;15.63;;;13.63;;
1721;SDS011;858;53.190;8.596;2023-06-26T05:27:14;15.33;;;13.93;;
1721;SDS011;858;53.190;8.596;2023-06-26T05:29:46;14.37;;;12.87;;
1721;SDS011;858;53.190;8.596;2023-06-26T05:32:13;14.03;;;12.70;;
1721;SDS011;858;53.190;8.596;2023-06-26T05:34:42;14.07;;;12.53;;
1721;SDS011;858;53.190;8.596;2023-06-26T05:37:09;13.30;;;11.93;;
1721;SDS011;858;53.190;8.596;2023-06-26T05:39:37;14.60;;;13.30;;
1721;SDS011;858;53.190;8.596;2023-06-26T05:42:04;14.47;;;13.03;;
1721;SDS011;858;53.190;8.596;2023-06-26T05:44:32;14.83;;;13.20;;
1721;SDS011;858;53.190;8.596;2023-06-26T05:46:59;14.87;;;12.50;;
1721;SDS011;858;53.190;8.596;2023-06-26T05:49:25;14.57;;;13.10;;
1721;SDS011;858;53.190;8.596;2023-06-26T05:51:52;14.00;;;12.80;;
1721;SDS011;858;53.190;8.596;2023-06-26T05:54:18;13.63;;;12.43;;
1721;SDS011;858;53.190;8.596;2023-06-26T05:56:45;15.27;;;11.57;;
1721;SDS011;858;53.190;8.596;2023-06-26T05:59:12;15.00;;;13.40;;
1721;SDS011;858;53.190;8.596;2023-06-26T06:01:42;13.10;;;11.73;;
1721;SDS011;858;53.190;8.596;2023-06-26T06:04:08;13.00;;;11.80;;
1721;SDS011;858;53.190;8.596;2023-06-26T06:06:34;12.77;;;11.57;;
1721;SDS011;858;53.190;8.596;2023-06-26T06:09:01;13.10;;;11.80;;
1721;SDS011;858;53.190;8.596;2023-06-26T06:11:28;14.90;;;12.80;;
1721;SDS011;858;53.190;8.596;2023-06-26T06:13:54;15.30;;;13.07;;
1721;SDS011;858;53.190;8.596;2023-06-26T06:16:21;14.57;;;13.17;;
1721;SDS011;858;53.190;8.596;2023-06-26T06:18:49;13.03;;;11.70;;
1721;SDS011;858;53.190;8.596;2023-06-26T06:21:15;12.60;;;11.30;;
1721;SDS011;858;53.190;8.596;2023-06-26T06:23:41;13.50;;;12.10;;
1721;SDS011;858;53.190;8.596;2023-06-26T06:26:08;12.93;;;11.70;;
1721;SDS011;858;53.190;8.596;2023-06-26T06:28:34;13.07;;;11.87;;
1721;SDS011;858;53.190;8.596;2023-06-26T06:31:02;13.27;;;11.97;;
1721;SDS011;858;53.190;8.596;2023-06-26T06:33:28;13.50;;;11.30;;
1721;SDS011;858;53.190;8.596;2023-06-26T06:35:56;13.67;;;12.37;;
1721;SDS011;858;53.190;8.596;2023-06-26T06:38:23;15.50;;;12.70;;
1721;SDS011;858;53.190;8.596;2023-06-26T06:40:49;14.77;;;13.27;;
1721;SDS011;858;53.190;8.596;2023-06-26T06:43:15;13.27;;;12.07;;
1721;SDS011;858;53.190;8.596;2023-06-26T06:45:42;14.60;;;13.10;;
1721;SDS011;858;53.190;8.596;2023-06-26T06:48:08;17.03;;;15.30;;
1721;SDS011;858;53.190;8.596;2023-06-26T06:50:34;16.30;;;14.70;;
1721;SDS011;858;53.190;8.596;2023-06-26T06:53:02;16.67;;;14.97;;
1721;SDS011;858;53.190;8.596;2023-06-26T06:55:29;16.30;;;14.60;;
1721;SDS011;858;53.190;8.596;2023-06-26T06:57:55;16.37;;;14.60;;
1721;SDS011;858;53.190;8.596;2023-06-26T07:00:21;15.93;;;14.50;;
1721;SDS011;858;53.190;8.596;2023-06-26T07:02:48;16.67;;;14.90;;
1721;SDS011;858;53.190;8.596;2023-06-26T07:05:15;16.40;;;14.70;;
1721;SDS011;858;53.190;8.596;2023-06-26T07:07:42;17.33;;;15.50;;
1721;SDS011;858;53.190;8.596;2023-06-26T07:10:11;17.53;;;15.70;;
1721;SDS011;858;53.190;8.596;2023-06-26T07:12:38;16.30;;;14.60;;
1721;SDS011;858;53.190;8.596;2023-06-26T07:15:05;16.17;;;14.67;;
1721;SDS011;858;53.190;8.596;2023-06-26T07:17:32;16.90;;;15.30;;
1721;SDS011;858;53.190;8.596;2023-06-26T07:19:58;13.57;;;12.33;;
1721;SDS011;858;53.190;8.596;2023-06-26T07:22:25;15.40;;;13.90;;
1721;SDS011;858;53.190;8.596;2023-06-26T07:24:51;14.60;;;13.13;;
1721;SDS011;858;53.190;8.596;2023-06-26T07:27:19;17.50;;;13.67;;
1721;SDS011;858;53.190;8.596;2023-06-26T07:29:46;17.60;;;13.27;;
1721;SDS011;858;53.190;8.596;2023-06-26T07:32:12;15.30;;;13.03;;
1721;SDS011;858;53.190;8.596;2023-06-26T07:34:38;14.73;;;13.23;;
1721;SDS011;858;53.190;8.596;2023-06-26T07:37:05;15.90;;;13.50;;
1721;SDS011;858;53.190;8.596;2023-06-26T07:39:31;24.70;;;13.90;;
1721;SDS011;858;53.190;8.596;2023-06-26T07:41:57;20.13;;;14.97;;
1721;SDS011;858;53.190;8.596;2023-06-26T07:44:25;18.50;;;15.40;;
1721;SDS011;858;53.190;8.596;2023-06-26T07:46:52;17.90;;;16.10;;
1721;SDS011;858;53.190;8.596;2023-06-26T07:49:18;16.27;;;14.57;;
1721;SDS011;858;53.190;8.596;2023-06-26T07:51:46;22.03;;;16.27;;
1721;SDS011;858;53.190;8.596;2023-06-26T07:54:12;17.23;;;15.53;;
1721;SDS011;858;53.190;8.596;2023-06-26T07:56:52;18.13;;;16.30;;
1721;SDS011;858;53.190;8.596;2023-06-26T07:59:18;17.27;;;15.20;;
1721;SDS011;858;53.190;8.596;2023-06-26T08:01:47;17.90;;;15.33;;
1721;SDS011;858;53.190;8.596;2023-06-26T08:04:13;15.23;;;13.63;;
1721;SDS011;858;53.190;8.596;2023-06-26T08:06:43;15.13;;;13.60;;
1721;SDS011;858;53.190;8.596;2023-06-26T08:09:09;18.13;;;14.40;;
1721;SDS011;858;53.190;8.596;2023-06-26T08:11:37;16.70;;;13.63;;
1721;SDS011;858;53.190;8.596;2023-06-26T08:14:04;16.83;;;15.17;;
1721;SDS011;858;53.190;8.596;2023-06-26T08:16:30;15.67;;;13.03;;
1721;SDS011;858;53.190;8.596;2023-06-26T08:18:58;14.93;;;13.40;;
1721;SDS011;858;53.190;8.596;2023-06-26T08:21:24;36.53;;;15.40;;
1721;SDS011;858;53.190;8.596;2023-06-26T08:23:51;18.47;;;15.77;;
1721;SDS011;858;53.190;8.596;2023-06-26T08:26:17;15.60;;;14.00;;
1721;SDS011;858;53.190;8.596;2023-06-26T08:28:43;20.83;;;16.47;;
1721;SDS011;858;53.190;8.596;2023-06-26T08:31:10;18.20;;;15.27;;
1721;SDS011;858;53.190;8.596;2023-06-26T08:33:37;19.90;;;17.00;;
1721;SDS011;858;53.190;8.596;2023-06-26T08:36:05;19.80;;;16.00;;
1721;SDS011;858;53.190;8.596;2023-06-26T08:38:31;24.30;;;18.13;;
1721;SDS011;858;53.190;8.596;2023-06-26T08:40:59;24.63;;;19.20;;
1721;SDS011;858;53.190;8.596;2023-06-26T08:43:26;20.70;;;17.77;;
1721;SDS011;858;53.190;8.596;2023-06-26T08:45:53;21.27;;;16.90;;
1721;SDS011;858;53.190;8.596;2023-06-26T08:48:20;23.03;;;16.90;;
1721;SDS011;858;53.190;8.596;2023-06-26T08:50:47;19.60;;;16.77;;
1721;SDS011;858;53.190;8.596;2023-06-26T08:53:18;22.70;;;16.87;;
1721;SDS011;858;53.190;8.596;2023-06-26T08:55:47;22.27;;;16.60;;
1721;SDS011;858;53.190;8.596;2023-06-26T08:58:15;19.60;;;16.73;;
1721;SDS011;858;53.190;8.596;2023-06-26T09:00:41;21.23;;;15.90;;
1721;SDS011;858;53.190;8.596;2023-06-26T09:03:08;19.10;;;15.07;;
1721;SDS011;858;53.190;8.596;2023-06-26T09:05:37;17.67;;;14.00;;
1721;SDS011;858;53.190;8.596;2023-06-26T09:08:04;14.03;;;11.33;;
1721;SDS011;858;53.190;8.596;2023-06-26T09:10:32;17.23;;;10.20;;
1721;SDS011;858;53.190;8.596;2023-06-26T09:12:58;19.13;;;11.20;;
1721;SDS011;858;53.190;8.596;2023-06-26T09:15:26;15.63;;;9.90;;
1721;SDS011;858;53.190;8.596;2023-06-26T09:17:53;11.60;;;7.97;;
1721;SDS011;858;53.190;8.596;2023-06-26T09:20:21;12.57;;;7.90;;
1721;SDS011;858;53.190;8.596;2023-06-26T09:22:48;14.63;;;7.60;;
1721;SDS011;858;53.190;8.596;2023-06-26T09:25:14;10.20;;;7.00;;
1721;SDS011;858;53.190;8.596;2023-06-26T09:27:44;10.37;;;6.77;;
1721;SDS011;858;53.190;8.596;2023-06-26T09:30:11;12.43;;;7.60;;
1721;SDS011;858;53.190;8.596;2023-06-26T09:32:37;10.20;;;6.00;;
1721;SDS011;858;53.190;8.596;2023-06-26T09:35:05;9.60;;;5.53;;
1721;SDS011;858;53.190;8.596;2023-06-26T09:37:32;8.03;;;4.50;;
1721;SDS011;858;53.190;8.596;2023-06-26T09:39:58;7.60;;;4.50;;
1721;SDS011;858;53.190;8.596;2023-06-26T09:42:25;10.33;;;4.20;;
1721;SDS011;858;53.190;8.596;2023-06-26T09:44:53;7.30;;;4.00;;
1721;SDS011;858;53.190;8.596;2023-06-26T09:47:19;8.03;;;4.07;;
1721;SDS011;858;53.190;8.596;2023-06-26T09:49:46;7.43;;;3.40;;
1721;SDS011;858;53.190;8.596;2023-06-26T09:52:13;7.60;;;3.20;;
1721;SDS011;858;53.190;8.596;2023-06-26T09:54:40;8.10;;;4.33;;
1721;SDS011;858;53.190;8.596;2023-06-26T09:57:09;5.13;;;3.20;;
1721;SDS011;858;53.190;8.596;2023-06-26T09:59:35;6.43;;;3.20;;
1721;SDS011;858;53.190;8.596;2023-06-26T10:02:04;8.53;;;3.20;;
1721;SDS011;858;53.190;8.596;2023-06-26T10:04:31;8.20;;;3.13;;
1721;SDS011;858;53.190;8.596;2023-06-26T10:06:58;5.27;;;3.00;;
1721;SDS011;858;53.190;8.596;2023-06-26T10:09:25;10.30;;;2.77;;
1721;SDS011;858;53.190;8.596;2023-06-26T10:11:54;4.70;;;2.60;;
1721;SDS011;858;53.190;8.596;2023-06-26T10:14:21;7.70;;;3.77;;
1721;SDS011;858;53.190;8.596;2023-06-26T10:16:48;5.53;;;2.87;;
1721;SDS011;858;53.190;8.596;2023-06-26T10:19:18;10.43;;;2.63;;
1721;SDS011;858;53.190;8.596;2023-06-26T10:21:49;4.33;;;2.30;;
1721;SDS011;858;53.190;8.596;2023-06-26T10:24:16;3.77;;;2.20;;
1721;SDS011;858;53.190;8.596;2023-06-26T10:26:44;4.30;;;2.50;;
1721;SDS011;858;53.190;8.596;2023-06-26T10:29:11;4.60;;;2.10;;
1721;SDS011;858;53.190;8.596;2023-06-26T10:31:37;9.17;;;3.07;;
1721;SDS011;858;53.190;8.596;2023-06-26T10:34:05;5.37;;;2.43;;
1721;SDS011;858;53.190;8.596;2023-06-26T10:36:33;3.73;;;1.73;;
1721;SDS011;858;53.190;8.596;2023-06-26T10:39:03;8.10;;;2.47;;
1721;SDS011;858;53.190;8.596;2023-06-26T10:41:35;9.87;;;2.93;;
1721;SDS011;858;53.190;8.596;2023-06-26T10:44:09;6.53;;;2.60;;
1721;SDS011;858;53.190;8.596;2023-06-26T10:49:17;5.43;;;2.10;;
1721;SDS011;858;53.190;8.596;2023-06-26T10:51:47;5.70;;;2.10;;
1721;SDS011;858;53.190;8.596;2023-06-26T10:54:14;4.33;;;2.43;;
1721;SDS011;858;53.190;8.596;2023-06-26T10:56:41;3.07;;;1.70;;
1721;SDS011;858;53.190;8.596;2023-06-26T10:59:13;5.30;;;2.00;;
1721;SDS011;858;53.190;8.596;2023-06-26T11:01:40;7.30;;;2.20;;
1721;SDS011;858;53.190;8.596;2023-06-26T11:04:07;4.10;;;2.03;;
1721;SDS011;858;53.190;8.596;2023-06-26T11:06:35;5.43;;;2.40;;
1721;SDS011;858;53.190;8.596;2023-06-26T11:09:07;5.47;;;1.80;;
1721;SDS011;858;53.190;8.596;2023-06-26T11:14:23;11.67;;;3.00;;
1721;SDS011;858;53.190;8.596;2023-06-26T11:16:50;4.03;;;2.23;;
1721;SDS011;858;53.190;8.596;2023-06-26T11:19:16;4.20;;;2.33;;
1721;SDS011;858;53.190;8.596;2023-06-26T11:21:43;4.50;;;2.47;;
1721;SDS011;858;53.190;8.596;2023-06-26T11:24:12;7.50;;;2.60;;
1721;SDS011;858;53.190;8.596;2023-06-26T11:26:38;4.60;;;2.63;;
1721;SDS011;858;53.190;8.596;2023-06-26T11:29:05;5.77;;;2.30;;
1721;SDS011;858;53.190;8.596;2023-06-26T11:31:31;9.73;;;3.13;;
1721;SDS011;858;53.190;8.596;2023-06-26T11:33:59;3.60;;;2.30;;
1721;SDS011;858;53.190;8.596;2023-06-26T11:36:25;5.93;;;2.50;;
1721;SDS011;858;53.190;8.596;2023-06-26T11:38:52;7.47;;;2.33;;
1721;SDS011;858;53.190;8.596;2023-06-26T11:41:21;3.00;;;2.20;;
1721;SDS011;858;53.190;8.596;2023-06-26T11:43:47;3.40;;;2.70;;
1721;SDS011;858;53.190;8.596;2023-06-26T11:46:15;7.10;;;2.83;;
1721;SDS011;858;53.190;8.596;2023-06-26T11:48:42;6.83;;;2.40;;
1721;SDS011;858;53.190;8.596;2023-06-26T11:51:09;3.73;;;2.20;;
1721;SDS011;858;53.190;8.596;2023-06-26T11:53:38;3.83;;;2.87;;
1721;SDS011;858;53.190;8.596;2023-06-26T11:56:07;4.97;;;2.67;;
1721;SDS011;858;53.190;8.596;2023-06-26T11:58:35;4.47;;;2.70;;
1721;SDS011;858;53.190;8.596;2023-06-26T12:01:01;7.10;;;2.23;;
1721;SDS011;858;53.190;8.596;2023-06-26T12:03:28;5.37;;;2.27;;
1721;SDS011;858;53.190;8.596;2023-06-26T12:05:55;8.10;;;3.07;;
1721;SDS011;858;53.190;8.596;2023-06-26T12:08:21;5.30;;;2.17;;
1721;SDS011;858;53.190;8.596;2023-06-26T12:10:48;5.90;;;2.63;;
1721;SDS011;858;53.190;8.596;2023-06-26T12:13:14;4.60;;;2.40;;
1721;SDS011;858;53.190;8.596;2023-06-26T12:15:42;5.17;;;2.40;;
1721;SDS011;858;53.190;8.596;2023-06-26T12:18:09;5.47;;;2.10;;
1721;SDS011;858;53.190;8.596;2023-06-26T12:20:39;6.43;;;3.00;;
1721;SDS011;858;53.190;8.596;2023-06-26T12:23:11;7.10;;;2.53;;
1721;SDS011;858;53.190;8.596;2023-06-26T12:25:37;3.63;;;2.17;;
1721;SDS011;858;53.190;8.596;2023-06-26T12:28:04;3.63;;;2.43;;
1721;SDS011;858;53.190;8.596;2023-06-26T12:30:40;6.90;;;2.87;;
1721;SDS011;858;53.190;8.596;2023-06-26T12:33:13;5.00;;;2.47;;
1721;SDS011;858;53.190;8.596;2023-06-26T12:35:40;4.17;;;2.57;;
1721;SDS011;858;53.190;8.596;2023-06-26T12:38:07;4.87;;;2.70;;
1721;SDS011;858;53.190;8.596;2023-06-26T12:40:44;4.13;;;2.40;;
1721;SDS011;858;53.190;8.596;2023-06-26T12:43:11;8.77;;;2.63;;
1721;SDS011;858;53.190;8.596;2023-06-26T12:45:37;3.13;;;2.40;;
1721;SDS011;858;53.190;8.596;2023-06-26T12:48:07;6.97;;;3.23;;
1721;SDS011;858;53.190;8.596;2023-06-26T12:50:38;4.67;;;2.63;;
1721;SDS011;858;53.190;8.596;2023-06-26T12:53:04;7.30;;;2.40;;
1721;SDS011;858;53.190;8.596;2023-06-26T12:55:30;4.30;;;2.33;;
1721;SDS011;858;53.190;8.596;2023-06-26T12:57:56;3.77;;;2.57;;
1721;SDS011;858;53.190;8.596;2023-06-26T13:00:23;3.50;;;2.67;;
1721;SDS011;858;53.190;8.596;2023-06-26T13:02:50;8.60;;;3.60;;
1721;SDS011;858;53.190;8.596;2023-06-26T13:05:17;6.17;;;2.63;;
1721;SDS011;858;53.190;8.596;2023-06-26T13:07:45;3.00;;;2.70;;
1721;SDS011;858;53.190;8.596;2023-06-26T13:10:11;5.93;;;2.90;;
1721;SDS011;858;53.190;8.596;2023-06-26T13:12:37;3.70;;;2.70;;
1721;SDS011;858;53.190;8.596;2023-06-26T13:15:04;5.03;;;2.90;;
1721;SDS011;858;53.190;8.596;2023-06-26T13:17:31;6.67;;;3.30;;
1721;SDS011;858;53.190;8.596;2023-06-26T13:19:57;4.67;;;2.70;;
1721;SDS011;858;53.190;8.596;2023-06-26T13:22:23;4.17;;;2.60;;
1721;SDS011;858;53.190;8.596;2023-06-26T13:24:51;3.93;;;3.00;;
1721;SDS011;858;53.190;8.596;2023-06-26T13:27:17;4.10;;;2.50;;
1721;SDS011;858;53.190;8.596;2023-06-26T13:29:45;4.40;;;3.27;;
1721;SDS011;858;53.190;8.596;2023-06-26T13:32:13;4.53;;;3.17;;
1721;SDS011;858;53.190;8.596;2023-06-26T13:34:39;7.00;;;3.33;;
1721;SDS011;858;53.190;8.596;2023-06-26T13:37:06;4.13;;;2.53;;
1721;SDS011;858;53.190;8.596;2023-06-26T13:39:32;5.03;;;3.10;;
1721;SDS011;858;53.190;8.596;2023-06-26T13:42:00;6.10;;;2.70;;
1721;SDS011;858;53.190;8.596;2023-06-26T13:44:27;8.40;;;4.00;;
1721;SDS011;858;53.190;8.596;2023-06-26T13:46:54;3.63;;;2.80;;
1721;SDS011;858;53.190;8.596;2023-06-26T13:49:20;7.40;;;3.10;;
1721;SDS011;858;53.190;8.596;2023-06-26T13:51:47;4.57;;;2.70;;
1721;SDS011;858;53.190;8.596;2023-06-26T13:54:13;6.93;;;3.10;;
1721;SDS011;858;53.190;8.596;2023-06-26T13:56:40;4.73;;;2.93;;
1721;SDS011;858;53.190;8.596;2023-06-26T13:59:07;4.20;;;2.90;;
1721;SDS011;858;53.190;8.596;2023-06-26T14:01:33;9.73;;;3.30;;
1721;SDS011;858;53.190;8.596;2023-06-26T14:04:00;10.17;;;2.80;;
1721;SDS011;858;53.190;8.596;2023-06-26T14:06:26;4.47;;;2.67;;
1721;SDS011;858;53.190;8.596;2023-06-26T14:08:53;6.13;;;2.40;;
1721;SDS011;858;53.190;8.596;2023-06-26T14:11:19;5.17;;;2.97;;
1721;SDS011;858;53.190;8.596;2023-06-26T14:13:47;6.10;;;2.77;;
1721;SDS011;858;53.190;8.596;2023-06-26T14:16:15;7.20;;;2.67;;
1721;SDS011;858;53.190;8.596;2023-06-26T14:18:43;4.43;;;2.80;;
1721;SDS011;858;53.190;8.596;2023-06-26T14:21:10;5.00;;;3.90;;
1721;SDS011;858;53.190;8.596;2023-06-26T14:23:36;4.10;;;2.27;;
1721;SDS011;858;53.190;8.596;2023-06-26T14:26:02;6.70;;;2.47;;
1721;SDS011;858;53.190;8.596;2023-06-26T14:28:29;3.60;;;2.50;;
1721;SDS011;858;53.190;8.596;2023-06-26T14:30:55;6.70;;;3.00;;
1721;SDS011;858;53.190;8.596;2023-06-26T14:33:23;8.83;;;2.80;;
1721;SDS011;858;53.190;8.596;2023-06-26T14:35:49;4.67;;;2.60;;
1721;SDS011;858;53.190;8.596;2023-06-26T14:38:16;4.90;;;2.53;;
1721;SDS011;858;53.190;8.596;2023-06-26T14:40:42;4.37;;;2.80;;
1721;SDS011;858;53.190;8.596;2023-06-26T14:43:08;8.30;;;2.50;;
1721;SDS011;858;53.190;8.596;2023-06-26T14:45:35;9.97;;;2.40;;
1721;SDS011;858;53.190;8.596;2023-06-26T14:48:01;3.93;;;2.50;;
1721;SDS011;858;53.190;8.596;2023-06-26T14:50:29;6.03;;;2.63;;
1721;SDS011;858;53.190;8.596;2023-06-26T14:52:55;5.97;;;2.20;;
1721;SDS011;858;53.190;8.596;2023-06-26T14:55:23;5.87;;;2.30;;
1721;SDS011;858;53.190;8.596;2023-06-26T14:57:50;9.10;;;2.70;;
1721;SDS011;858;53.190;8.596;2023-06-26T15:00:17;7.33;;;2.43;;
1721;SDS011;858;53.190;8.596;2023-06-26T15:02:44;3.97;;;1.90;;
1721;SDS011;858;53.190;8.596;2023-06-26T15:05:11;8.37;;;2.80;;
1721;SDS011;858;53.190;8.596;2023-06-26T15:07:39;5.43;;;2.87;;
1721;SDS011;858;53.190;8.596;2023-06-26T15:10:05;6.47;;;2.93;;
1721;SDS011;858;53.190;8.596;2023-06-26T15:12:32;6.47;;;2.53;;
1721;SDS011;858;53.190;8.596;2023-06-26T15:14:58;6.77;;;2.53;;
1721;SDS011;858;53.190;8.596;2023-06-26T15:17:25;4.57;;;2.30;;